Latest Weather Observations for Banana Bank

IDQ60901

Issued at 7:51 pm EST Friday 26 February 2021 (issued every 10 minutes, with the page automatically refreshed every 10 minutes)

About weather observations | Map of Brisbane area stations | Latest observations for Brisbane area | Other Formats
Station Details ID: 040925 Name: BANANA BANK NORTH BEACON Lat: -27.53 Lon: 153.33 Height: 7.0 m
Data from the previous 72 hours. | See also: Recent months at Banana Bank
Date/Time
EST
Temp
°C
App
Temp
°C
Dew
Point
°C
Rel
Hum
%
Delta-T
°C
Wind Press
QNH
hPa
Press
MSL
hPa
Rain since
9am
mm
Dir  Spd
km/h
Gust
km/h
Spd
kts
Gust
kts
26/07:30pm - - - - - NNE 17 22 9 12 - - -
26/07:00pm - - - - - NNE 19 22 10 12 - - -
26/06:30pm - - - - - NNE 20 26 11 14 - - -
26/06:00pm - - - - - NNE 22 28 12 15 - - -
26/05:30pm - - - - - NNE 22 28 12 15 - - -
26/05:00pm - - - - - NNE 22 26 12 14 - - -
26/04:30pm - - - - - NNE 22 28 12 15 - - -
26/04:00pm - - - - - NNE 20 24 11 13 - - -
26/03:30pm - - - - - NNE 19 22 10 12 - - -
26/03:00pm - - - - - N 15 17 8 9 - - -
26/02:30pm - - - - - NNE 15 19 8 10 - - -
26/02:00pm - - - - - N 17 19 9 10 - - -
26/01:30pm - - - - - N 15 17 8 9 - - -
26/01:00pm - - - - - N 13 17 7 9 - - -
26/12:30pm - - - - - N 13 15 7 8 - - -
26/12:00pm - - - - - N 13 15 7 8 - - -
26/11:30am - - - - - N 11 13 6 7 - - -
26/11:00am - - - - - NNW 9 11 5 6 - - -
26/10:30am - - - - - NW 9 11 5 6 - - -
26/10:00am - - - - - NW 9 11 5 6 - - -
26/09:30am - - - - - NW 7 9 4 5 - - -
26/09:00am - - - - - NW 9 11 5 6 - - -
26/08:30am - - - - - W 6 7 3 4 - - -
26/08:00am - - - - - SW 4 6 2 3 - - -
26/07:30am - - - - - NNW 7 9 4 5 - - -
26/07:00am - - - - - N 6 7 3 4 - - -
26/06:30am - - - - - N 7 9 4 5 - - -
26/06:00am - - - - - N 6 7 3 4 - - -
26/05:30am - - - - - NNW 7 9 4 5 - - -
26/05:00am - - - - - NW 7 9 4 5 - - -
26/04:30am - - - - - NW 6 9 3 5 - - -
26/04:00am - - - - - N 7 9 4 5 - - -
26/03:30am - - - - - NNE 7 9 4 5 - - -
26/03:00am - - - - - NNE 9 11 5 6 - - -
26/02:30am - - - - - NE 9 13 5 7 - - -
26/02:00am - - - - - NE 9 13 5 7 - - -
26/01:30am - - - - - NE 11 15 6 8 - - -
26/01:00am - - - - - NNE 9 13 5 7 - - -
26/12:30am - - - - - NE 15 17 8 9 - - -
26/12:00am - - - - - NE 13 17 7 9 - - -
 
Date/Time
EST
Temp
°C
App
Temp
°C
Dew
Point
°C
Rel
Hum
%
Delta-T
°C
Wind Press
QNH
hPa
Press
MSL
hPa
Rain since
9am
mm
Dir  Spd
km/h
Gust
km/h
Spd
kts
Gust
kts
25/11:30pm - - - - - NNE 7 9 4 5 - - -
25/11:00pm - - - - - ENE 13 15 7 8 - - -
25/10:30pm - - - - - ENE 13 15 7 8 - - -
25/10:00pm - - - - - NE 13 15 7 8 - - -
25/09:30pm - - - - - NE 13 15 7 8 - - -
25/09:00pm - - - - - ENE 13 17 7 9 - - -
25/08:30pm - - - - - NE 15 17 8 9 - - -
25/08:00pm - - - - - NE 19 22 10 12 - - -
25/07:30pm - - - - - ENE 17 20 9 11 - - -
25/07:00pm - - - - - NE 15 19 8 10 - - -
25/06:30pm - - - - - NNE 15 19 8 10 - - -
25/06:00pm - - - - - NNE 19 22 10 12 - - -
25/05:30pm - - - - - NNE 17 20 9 11 - - -
25/05:00pm - - - - - NE 19 22 10 12 - - -
25/04:30pm - - - - - NNE 17 22 9 12 - - -
25/04:00pm - - - - - NNE 17 20 9 11 - - -
25/03:30pm - - - - - NNE 13 17 7 9 - - -
25/03:00pm - - - - - NE 13 17 7 9 - - -
25/02:30pm - - - - - NNE 17 20 9 11 - - -
25/02:00pm - - - - - NE 24 28 13 15 - - -
25/01:30pm - - - - - ENE 15 20 8 11 - - -
25/01:00pm - - - - - NE 13 15 7 8 - - -
25/12:30pm - - - - - NE 11 17 6 9 - - -
25/12:00pm - - - - - NNE 13 28 7 15 - - -
25/11:30am - - - - - E 17 22 9 12 - - -
25/11:00am - - - - - ENE 20 24 11 13 - - -
25/10:30am - - - - - E 20 24 11 13 - - -
25/10:00am - - - - - E 19 24 10 13 - - -
25/09:30am - - - - - E 17 22 9 12 - - -
25/09:00am - - - - - E 20 24 11 13 - - -
25/08:30am - - - - - E 17 20 9 11 - - -
25/08:00am - - - - - E 19 22 10 12 - - -
25/07:30am - - - - - ESE 17 20 9 11 - - -
25/07:00am - - - - - ESE 13 17 7 9 - - -
25/06:30am - - - - - E 4 9 2 5 - - -
25/06:00am - - - - - CALM 0 0 0 0 - - -
25/05:30am - - - - - SSW 2 9 1 5 - - -
25/05:00am - - - - - N 19 28 10 15 - - -
25/04:30am - - - - - E 17 20 9 11 - - -
25/04:00am - - - - - E 17 19 9 10 - - -
25/03:30am - - - - - E 17 19 9 10 - - -
25/03:00am - - - - - E 15 19 8 10 - - -
25/02:30am - - - - - ENE 13 17 7 9 - - -
25/02:00am - - - - - ENE 20 24 11 13 - - -
25/01:30am - - - - - ENE 17 22 9 12 - - -
25/01:00am - - - - - E 13 17 7 9 - - -
25/12:30am - - - - - E 11 15 6 8 - - -
25/12:00am - - - - - ENE 15 19 8 10 - - -
 
Date/Time
EST
Temp
°C
App
Temp
°C
Dew
Point
°C
Rel
Hum
%
Delta-T
°C
Wind Press
QNH
hPa
Press
MSL
hPa
Rain since
9am
mm
Dir  Spd
km/h
Gust
km/h
Spd
kts
Gust
kts
24/11:30pm - - - - - E 17 22 9 12 - - -
24/11:00pm - - - - - ENE 15 19 8 10 - - -
24/10:30pm - - - - - ENE 17 20 9 11 - - -
24/10:00pm - - - - - ENE 20 26 11 14 - - -
24/09:30pm - - - - - E 20 28 11 15 - - -
24/09:00pm - - - - - ENE 24 30 13 16 - - -
24/08:30pm - - - - - ENE 22 28 12 15 - - -
24/08:00pm - - - - - E 24 32 13 17 - - -
24/07:30pm - - - - - E 26 32 14 17 - - -
24/07:00pm - - - - - E 24 28 13 15 - - -
24/06:30pm - - - - - E 24 30 13 16 - - -
24/06:00pm - - - - - E 24 28 13 15 - - -
24/05:30pm - - - - - ENE 22 28 12 15 - - -
24/05:00pm - - - - - E 24 28 13 15 - - -
24/04:30pm - - - - - E 24 30 13 16 - - -
24/04:00pm - - - - - E 20 26 11 14 - - -
24/03:30pm - - - - - E 24 26 13 14 - - -
24/03:00pm - - - - - ESE 13 17 7 9 - - -
24/02:30pm - - - - - SE 15 17 8 9 - - -
24/02:00pm - - - - - ESE 22 26 12 14 - - -
24/01:30pm - - - - - SE 19 22 10 12 - - -
24/01:00pm - - - - - SE 17 20 9 11 - - -
24/12:30pm - - - - - SE 7 9 4 5 - - -
24/12:00pm - - - - - SE 6 9 3 5 - - -
24/11:30am - - - - - ESE 13 17 7 9 - - -
24/11:00am - - - - - ESE 15 17 8 9 - - -
24/10:30am - - - - - E 15 17 8 9 - - -
24/10:00am - - - - - E 15 22 8 12 - - -
24/09:30am - - - - - ESE 15 17 8 9 - - -
24/09:00am - - - - - ESE 19 24 10 13 - - -
24/08:30am - - - - - ESE 11 17 6 9 - - -
24/08:00am - - - - - SE 13 17 7 9 - - -
24/07:30am - - - - - SSE 13 15 7 8 - - -
24/07:00am - - - - - SSE 17 20 9 11 - - -
24/06:30am - - - - - SSE 19 20 10 11 - - -
24/06:00am - - - - - SSE 20 24 11 13 - - -
24/05:30am - - - - - SSW 13 17 7 9 - - -
24/05:00am - - - - - S 13 17 7 9 - - -
24/04:30am - - - - - SSE 11 13 6 7 - - -
24/04:00am - - - - - S 6 7 3 4 - - -
24/03:30am - - - - - SW 9 11 5 6 - - -
24/03:00am - - - - - S 11 13 6 7 - - -
24/02:30am - - - - - S 17 20 9 11 - - -
24/02:00am - - - - - SSW 13 15 7 8 - - -
24/01:30am - - - - - SSW 13 17 7 9 - - -
24/01:00am - - - - - SSW 19 20 10 11 - - -
24/12:30am - - - - - SSW 15 19 8 10 - - -
24/12:00am - - - - - S 20 24 11 13 - - -
 
Date/Time
EST
Temp
°C
App
Temp
°C
Dew
Point
°C
Rel
Hum
%
Delta-T
°C
Wind Press
QNH
hPa
Press
MSL
hPa
Rain since
9am
mm
Dir  Spd
km/h
Gust
km/h
Spd
kts
Gust
kts
23/11:30pm - - - - - NE 9 17 5 9 - - -
23/11:00pm - - - - - NE 33 39 18 21 - - -
23/10:30pm - - - - - N 19 22 10 12 - - -
23/10:00pm - - - - - ESE 7 13 4 7 - - -
23/09:30pm - - - - - E 20 28 11 15 - - -
23/09:00pm - - - - - ENE 26 32 14 17 - - -
23/08:30pm - - - - - E 32 35 17 19 - - -
23/08:00pm - - - - - ESE 30 33 16 18 - - -

Latest Capital City Observations: Canberra | Sydney | Melbourne | Brisbane | Adelaide | Perth | Hobart | Darwin

Other formats

Comma delimited format used in spreadsheet applications
http://www.bom.gov.au/fwo/IDQ60901/IDQ60901.94591.axf

JavaScript Object Notation format (JSON) in row-major order
http://www.bom.gov.au/fwo/IDQ60901/IDQ60901.94591.json

Data quality

Most of these data are generated automatically and are frequently updated. Quality checks on data are not normally performed. It is possible for incorrect values to appear. Refer to information at About Latest Weather Observations and please check the disclaimer before using these data.